Time;durP1;ratioP1;P1;durP2;ratioP2;P2;SDS_P1;SDS_P2;PMS_P1;PMS_P2;Temp;Humidity;BMP_temperature;BMP_pressure;BME280_temperature;BME280_humidity;BME280_pressure;Samples;Min_cycle;Max_cycle;Signal;HPM_P1;HPM_P2
2023/05/16 00:00:40;;;;;;;8.23;0.75;;;;;;;-146.25;96.46;52151.25;2080667;28;38524;-71
2023/05/16 00:01:42;;;;;;;10.13;1.00;;;;;;;-146.25;96.45;52112.72;2080130;28;33991;-72
2023/05/16 00:02:46;;;;;;;11.00;1.27;;;;;;;-146.25;96.44;52108.66;2080774;28;32731;-71
2023/05/16 00:03:49;;;;;;;11.32;1.23;;;;;;;-146.25;96.66;52112.72;2080873;28;35035;-71
2023/05/16 00:04:50;;;;;;;7.07;0.90;;;;;;;-146.25;96.35;52120.84;2080708;28;33158;-71
2023/05/16 00:05:52;;;;;;;9.77;1.20;;;;;;;-146.25;96.05;52112.72;2080735;28;36769;-71
2023/05/16 00:06:54;;;;;;;6.03;0.85;;;;;;;-146.25;96.45;52139.09;2080988;28;32270;-72
2023/05/16 00:07:58;;;;;;;10.60;1.20;;;;;;;-146.25;96.05;52116.78;2080775;28;34552;-72
2023/05/16 00:09:00;;;;;;;12.93;1.42;;;;;;;-146.25;96.03;52096.50;2080438;28;36814;-72
2023/05/16 00:10:02;;;;;;;12.27;1.00;;;;;;;-146.25;96.07;52108.66;2080317;28;34441;-72
2023/05/16 00:11:04;;;;;;;10.65;1.25;;;;;;;-146.25;96.35;52086.38;2080875;28;32703;-72
2023/05/16 00:12:06;;;;;;;9.70;1.08;;;;;;;-146.25;95.77;52102.59;2080704;28;32370;-72
2023/05/16 00:13:08;;;;;;;10.55;1.25;;;;;;;-146.25;96.05;52108.66;2080867;28;32243;-72
2023/05/16 00:14:10;;;;;;;11.27;1.02;;;;;;;-146.25;95.51;52165.44;2080466;28;34761;-71
2023/05/16 00:15:13;;;;;;;9.85;1.20;;;;;;;-146.25;95.56;52104.63;2080252;28;30154;-71
2023/05/16 00:16:14;;;;;;;12.95;1.08;;;;;;;-146.25;95.12;52116.78;2080035;28;33023;-72
2023/05/16 00:17:19;;;;;;;16.38;1.30;;;;;;;-146.25;95.44;52135.03;2080114;28;38797;-71
2023/05/16 00:18:21;;;;;;;12.93;1.27;;;;;;;-146.25;95.06;52122.88;2080344;28;32934;-71
2023/05/16 00:19:25;;;;;;;10.23;1.30;;;;;;;-146.25;94.44;52133.00;2080586;28;35365;-71
2023/05/16 00:20:28;;;;;;;9.73;1.10;;;;;;;-146.25;94.66;52092.44;2079914;28;35021;-71
2023/05/16 00:21:30;;;;;;;14.75;1.52;;;;;;;-146.25;95.18;52104.63;2071924;28;35292;-71
2023/05/16 00:22:32;;;;;;;8.02;0.85;;;;;;;-146.25;94.28;52098.53;2079958;28;36271;-72
2023/05/16 00:23:37;;;;;;;8.02;1.02;;;;;;;-146.25;93.96;52133.00;2080979;28;35158;-71
2023/05/16 00:24:39;;;;;;;7.25;0.80;;;;;;;-146.25;94.40;52155.31;2080551;28;34162;-71
2023/05/16 00:25:41;;;;;;;13.32;1.30;;;;;;;-146.25;93.96;52110.69;2080231;28;30674;-71
2023/05/16 00:26:42;;;;;;;7.22;1.15;;;;;;;-146.25;93.11;52114.75;2080265;28;33377;-71
2023/05/16 00:27:44;;;;;;;12.02;1.27;;;;;;;-146.25;93.45;52116.78;2079913;28;23738;-72
2023/05/16 00:28:47;;;;;;;8.60;1.17;;;;;;;-146.25;93.33;52149.22;2079833;28;27304;-72
2023/05/16 00:29:49;;;;;;;8.43;0.93;;;;;;;-146.25;93.36;52122.88;2080893;28;20041;-71
2023/05/16 00:30:51;;;;;;;11.10;0.80;;;;;;;-146.25;91.64;52122.88;2080011;28;20075;-71
2023/05/16 00:31:53;;;;;;;12.45;1.70;;;;;;;-146.25;91.75;52124.91;2080327;28;22868;-71
2023/05/16 00:32:55;;;;;;;12.25;1.80;;;;;;;-146.25;91.66;52114.75;2079702;28;32629;-72
2023/05/16 00:33:57;;;;;;;11.35;1.35;;;;;;;-146.25;92.17;52128.94;2080507;28;20045;-71
2023/05/16 00:34:59;;;;;;;10.90;0.90;;;;;;;-146.25;92.75;52096.50;2071713;28;31049;-71
2023/05/16 00:36:01;;;;;;;15.07;1.45;;;;;;;-146.25;91.81;52133.00;2071867;28;31271;-72
2023/05/16 00:37:03;;;;;;;9.65;1.17;;;;;;;-146.25;92.23;52114.75;2081361;28;20046;-71
2023/05/16 00:38:05;;;;;;;9.45;0.95;;;;;;;-146.25;91.28;52104.63;2080636;28;28057;-71
2023/05/16 00:39:06;;;;;;;10.75;1.20;;;;;;;-146.25;91.03;52133.00;2079944;28;22791;-72
2023/05/16 00:40:09;;;;;;;9.50;1.20;;;;;;;-146.25;91.20;52126.91;2072217;28;20043;-72
2023/05/16 00:41:11;;;;;;;12.32;1.20;;;;;;;-146.25;91.13;52122.88;2063547;28;28075;-71
2023/05/16 00:42:19;;;;;;;11.93;1.58;;;;;;;-146.25;91.21;52124.91;2072527;28;20050;-72
2023/05/16 00:43:20;;;;;;;11.30;1.30;;;;;;;-146.25;91.17;52151.25;2079789;28;32771;-72
2023/05/16 00:44:24;;;;;;;12.02;1.40;;;;;;;-146.25;90.77;52124.91;2073007;28;20050;-72
2023/05/16 00:45:27;;;;;;;8.07;1.10;;;;;;;-146.25;91.26;52090.44;2071880;28;27967;-71
2023/05/16 00:46:30;;;;;;;12.70;1.30;;;;;;;-146.25;90.81;52173.56;2072111;28;20843;-72
2023/05/16 00:47:32;;;;;;;9.65;1.13;;;;;;;-146.25;91.43;52139.09;2080204;28;20124;-71
2023/05/16 00:48:33;;;;;;;15.15;1.27;;;;;;;-146.25;90.66;52112.72;2080168;28;24756;-71
2023/05/16 00:49:35;;;;;;;10.07;1.30;;;;;;;-146.25;90.63;52126.91;2072008;28;20832;-72
2023/05/16 00:50:38;;;;;;;9.88;0.80;;;;;;;-146.25;91.03;52090.44;2079280;28;33260;-72
2023/05/16 00:51:40;;;;;;;8.55;1.17;;;;;;;-146.25;90.52;52120.84;2080137;28;33524;-72
2023/05/16 00:52:42;;;;;;;8.55;1.20;;;;;;;-146.25;90.06;52135.03;2080376;28;29884;-72
2023/05/16 00:53:44;;;;;;;7.45;1.00;;;;;;;-146.25;90.34;52141.13;2080077;28;24586;-72
2023/05/16 00:54:46;;;;;;;9.90;1.10;;;;;;;-146.25;90.28;52116.78;2055500;28;23078;-72
2023/05/16 00:55:48;;;;;;;6.88;0.90;;;;;;;-146.25;90.38;52092.44;2064407;28;23190;-72
2023/05/16 00:56:50;;;;;;;11.88;1.42;;;;;;;-146.25;90.99;52133.00;2079773;28;30329;-72
2023/05/16 00:57:52;;;;;;;11.73;1.27;;;;;;;-146.25;90.90;52112.72;2080429;28;20173;-72
2023/05/16 00:58:53;;;;;;;10.50;1.08;;;;;;;-146.25;90.13;52124.91;2079444;28;36596;-72
2023/05/16 00:59:55;;;;;;;11.70;1.60;;;;;;;-146.25;90.15;52108.66;2079740;28;25632;-72
2023/05/16 01:00:57;;;;;;;10.80;1.05;;;;;;;-146.25;90.38;52126.91;2079854;28;22239;-72
2023/05/16 01:02:01;;;;;;;8.68;1.40;;;;;;;-146.25;90.54;52098.53;2080038;28;23307;-72
2023/05/16 01:03:06;;;;;;;13.73;1.58;;;;;;;-146.25;90.23;52114.75;2072007;28;20164;-72
2023/05/16 01:04:08;;;;;;;12.32;1.52;;;;;;;-146.25;90.26;52135.03;2072478;28;26593;-72
2023/05/16 01:05:13;;;;;;;12.30;1.17;;;;;;;-146.25;89.70;52126.91;2072129;28;28841;-72
2023/05/16 01:06:15;;;;;;;12.40;1.52;;;;;;;-146.25;89.63;52108.66;2080029;28;24708;-72
2023/05/16 01:07:16;;;;;;;8.38;0.95;;;;;;;-146.25;90.47;52126.91;2080791;28;21919;-72
2023/05/16 01:08:19;;;;;;;8.10;0.90;;;;;;;-146.25;90.55;52122.88;2080552;28;30032;-72
2023/05/16 01:09:23;;;;;;;8.00;0.93;;;;;;;-146.25;90.08;52108.66;2081143;28;20041;-72
2023/05/16 01:10:34;;;;;;;11.82;1.42;;;;;;;-146.25;90.19;52133.00;2079537;28;31540;-71
2023/05/16 01:12:20;;;;;;;9.15;0.95;;;;;;;-146.25;89.58;52084.34;2071549;28;20128;-72
2023/05/16 01:13:56;;;;;;;11.30;0.93;;;;;;;-146.25;90.12;52128.94;2076602;28;29005;-71
2023/05/16 01:15:44;;;;;;;10.52;1.08;;;;;;;-146.25;90.11;52108.66;2080661;28;29367;-72
2023/05/16 01:16:58;;;;;;;12.00;0.90;;;;;;;-146.25;89.30;52139.09;2080016;28;20041;-71
2023/05/16 01:18:17;;;;;;;10.93;1.00;;;;;;;-146.25;89.38;52106.66;2087672;28;24478;-72
2023/05/16 01:20:14;;;;;;;8.77;0.85;;;;;;;-146.25;89.66;52133.00;2086859;28;31194;-72
2023/05/16 01:21:40;;;;;;;9.43;0.82;;;;;;;-146.25;89.84;52155.31;2079341;28;30506;-72
2023/05/16 01:23:05;;;;;;;14.57;1.40;;;;;;;-146.25;89.39;52124.91;2071152;28;24131;-72
2023/05/16 01:24:33;;;;;;;7.78;0.95;;;;;;;-146.25;89.58;52165.44;2077992;28;26398;-72
2023/05/16 01:26:01;;;;;;;16.58;1.58;;;;;;;-146.25;90.07;52120.84;2079316;28;22958;-71
2023/05/16 01:27:05;;;;;;;12.35;1.08;;;;;;;-146.25;89.43;52128.94;2079618;28;30196;-71
2023/05/16 01:28:08;;;;;;;10.65;1.23;;;;;;;-146.25;89.74;52159.34;2088366;28;20851;-71
2023/05/16 01:29:10;;;;;;;10.05;1.10;;;;;;;-146.25;89.36;52124.91;2095906;28;25099;-71
2023/05/16 01:30:15;;;;;;;11.05;1.10;;;;;;;-146.25;89.46;52120.84;2080954;28;20927;-71
2023/05/16 01:31:18;;;;;;;9.25;1.17;;;;;;;-146.25;89.68;52169.50;2079709;28;31715;-71
2023/05/16 01:32:21;;;;;;;18.52;1.65;;;;;;;-146.25;89.34;52126.91;2079244;28;35687;-71
2023/05/16 01:33:23;;;;;;;15.70;1.25;;;;;;;-146.25;89.85;52167.47;2071482;28;35541;-72
2023/05/16 01:34:25;;;;;;;11.80;1.67;;;;;;;-146.25;90.01;52120.84;2079930;28;30785;-71
2023/05/16 01:35:28;;;;;;;10.55;1.33;;;;;;;-146.25;90.30;52163.41;2080546;28;20049;-72
2023/05/16 01:36:59;;;;;;;12.68;1.27;;;;;;;-146.25;89.99;52108.66;2071166;28;33101;-71
2023/05/16 01:38:17;;;;;;;12.18;0.93;;;;;;;-146.25;89.87;52151.25;2076087;28;20030;-71
2023/05/16 01:39:29;;;;;;;12.55;1.75;;;;;;;-146.25;90.47;52155.31;2075071;28;34635;-72
2023/05/16 01:41:12;;;;;;;16.05;1.50;;;;;;;-146.25;90.38;52100.56;2073433;28;20049;-70
2023/05/16 01:42:17;;;;;;;16.25;1.35;;;;;;;-146.25;89.97;52137.06;2078083;28;27912;-72
2023/05/16 01:43:32;;;;;;;13.27;1.35;;;;;;;-146.25;90.83;52114.75;2080378;28;20069;-71
2023/05/16 01:44:57;;;;;;;17.92;1.63;;;;;;;-146.25;90.45;52128.94;2079523;28;36568;-71
2023/05/16 01:46:10;;;;;;;16.27;1.80;;;;;;;-146.25;89.66;52167.47;2080038;28;20033;-72
2023/05/16 01:47:15;;;;;;;16.08;1.75;;;;;;;-146.25;89.14;52114.75;2075099;28;33701;-70
2023/05/16 01:48:22;;;;;;;16.90;1.30;;;;;;;-146.25;89.38;52153.28;2072287;28;22510;-71
2023/05/16 01:50:07;;;;;;;15.18;1.75;;;;;;;-146.25;89.16;52104.63;2072700;28;26387;-71
2023/05/16 01:51:11;;;;;;;14.93;1.77;;;;;;;-146.25;88.68;52112.72;2080528;28;20891;-72
2023/05/16 01:52:21;;;;;;;17.45;1.08;;;;;;;-146.25;88.17;52137.06;2079647;28;22227;-72
2023/05/16 01:53:37;;;;;;;14.65;1.65;;;;;;;-146.25;87.98;52120.84;2071627;28;20054;-72
2023/05/16 01:54:44;;;;;;;15.05;1.52;;;;;;;-146.25;88.55;52141.13;2075562;28;20041;-71
2023/05/16 01:55:50;;;;;;;13.82;1.45;;;;;;;-146.25;87.94;52120.84;2072703;28;33930;-71
2023/05/16 01:56:55;;;;;;;20.92;1.40;;;;;;;-146.25;88.55;52151.25;2079591;28;28089;-72
2023/05/16 01:58:01;;;;;;;16.80;1.42;;;;;;;-146.25;88.35;52100.56;2071518;28;20042;-71
2023/05/16 01:59:04;;;;;;;21.52;2.00;;;;;;;-146.25;87.68;52151.25;2071480;28;33499;-72
2023/05/16 02:00:07;;;;;;;22.13;1.42;;;;;;;-146.25;88.01;52126.91;2080003;28;20038;-72
2023/05/16 02:01:14;;;;;;;16.02;1.25;;;;;;;-146.25;88.76;52130.97;2080364;28;20089;-72
2023/05/16 02:02:19;;;;;;;14.65;1.40;;;;;;;-146.25;88.71;52128.94;2079259;28;24497;-72
2023/05/16 02:03:23;;;;;;;17.75;1.33;;;;;;;-146.25;89.13;52133.00;2079339;28;27167;-71
2023/05/16 02:04:25;;;;;;;16.52;1.55;;;;;;;-146.25;89.04;52143.13;2079264;28;33163;-71
2023/05/16 02:05:27;;;;;;;17.85;1.35;;;;;;;-146.25;88.90;52157.34;2087764;28;20454;-71
2023/05/16 02:06:29;;;;;;;19.08;1.90;;;;;;;-146.25;89.12;52153.28;2087588;28;26123;-71
2023/05/16 02:07:32;;;;;;;13.55;1.23;;;;;;;-146.25;89.59;52133.00;2087685;28;23997;-71
2023/05/16 02:08:36;;;;;;;13.10;1.13;;;;;;;-146.25;89.60;52143.13;2095452;28;26489;-72
2023/05/16 02:09:41;;;;;;;9.95;1.15;;;;;;;-146.25;89.70;52157.34;2087624;28;30923;-72
2023/05/16 02:10:42;;;;;;;19.67;2.10;;;;;;;-146.25;90.05;52161.38;2086817;28;32893;-72
2023/05/16 02:11:45;;;;;;;20.67;1.33;;;;;;;-146.25;89.57;52126.91;2080472;28;21960;-71
2023/05/16 02:12:49;;;;;;;16.15;1.30;;;;;;;-146.25;89.69;52139.09;2079166;28;20108;-71
2023/05/16 02:13:51;;;;;;;20.48;1.92;;;;;;;-146.25;89.90;52141.13;2071566;28;20829;-72
2023/05/16 02:14:52;;;;;;;19.80;2.10;;;;;;;-146.25;89.79;52116.78;2079477;28;28388;-71
2023/05/16 02:15:54;;;;;;;11.50;1.02;;;;;;;-146.25;89.83;52139.09;2079037;28;27250;-71
2023/05/16 02:16:57;;;;;;;22.73;1.80;;;;;;;-146.25;89.91;52116.78;2071250;28;20039;-71
2023/05/16 02:17:58;;;;;;;12.65;1.08;;;;;;;-146.25;90.08;52155.31;2079362;28;30568;-72
2023/05/16 02:19:00;;;;;;;12.10;1.23;;;;;;;-146.25;89.94;52122.88;2080266;28;24635;-72
2023/05/16 02:20:05;;;;;;;16.25;1.90;;;;;;;-146.25;89.66;52124.91;2079914;28;25185;-72
2023/05/16 02:21:08;;;;;;;14.15;1.50;;;;;;;-146.25;90.06;52078.25;2080091;28;31928;-72
2023/05/16 02:22:10;;;;;;;13.85;1.35;;;;;;;-146.25;89.71;52141.13;2080449;28;20034;-72
2023/05/16 02:23:12;;;;;;;14.25;1.38;;;;;;;-146.25;89.75;52122.88;2080430;28;26717;-72
2023/05/16 02:24:14;;;;;;;10.13;1.42;;;;;;;-146.25;90.71;52161.38;2079250;28;27358;-72
2023/05/16 02:25:16;;;;;;;19.15;1.63;;;;;;;-146.25;89.98;52149.22;2079143;28;26076;-72
2023/05/16 02:26:18;;;;;;;12.63;1.50;;;;;;;-146.25;90.15;52149.22;2078300;28;29754;-72
2023/05/16 02:27:20;;;;;;;18.50;1.33;;;;;;;-146.25;90.45;52157.34;2079489;28;20049;-72
2023/05/16 02:28:21;;;;;;;15.15;1.35;;;;;;;-146.25;90.54;52157.34;2079764;28;22329;-72
2023/05/16 02:29:23;;;;;;;15.13;1.67;;;;;;;-146.25;90.57;52139.09;2079243;28;27497;-72
2023/05/16 02:30:25;;;;;;;14.85;1.45;;;;;;;-146.25;90.35;52133.00;2071495;28;20185;-71
2023/05/16 02:31:32;;;;;;;15.95;1.45;;;;;;;-146.25;91.03;52163.41;2070586;28;27744;-71
2023/05/16 02:32:35;;;;;;;9.20;0.75;;;;;;;-146.25;91.41;52106.66;2072423;28;20046;-72
2023/05/16 02:33:36;;;;;;;18.55;1.50;;;;;;;-146.25;91.77;52126.91;2079279;28;32051;-72
2023/05/16 02:34:38;;;;;;;16.45;1.30;;;;;;;-146.25;91.77;52120.84;2079660;28;32723;-72
2023/05/16 02:35:41;;;;;;;14.38;1.33;;;;;;;-146.25;92.55;52124.91;2080175;28;20034;-72
2023/05/16 02:36:44;;;;;;;17.70;1.73;;;;;;;-146.25;91.96;52159.34;2080446;28;20906;-72
2023/05/16 02:37:45;;;;;;;16.52;1.38;;;;;;;-146.25;91.91;52135.03;2070795;28;33457;-72
2023/05/16 02:38:47;;;;;;;13.85;1.30;;;;;;;-146.25;92.30;52141.13;2071347;28;20172;-71
2023/05/16 02:39:49;;;;;;;17.13;1.55;;;;;;;-146.25;92.73;52141.13;2079359;28;25184;-71
2023/05/16 02:40:51;;;;;;;17.17;1.63;;;;;;;-146.25;92.55;52135.03;2079887;28;31762;-71
2023/05/16 02:41:52;;;;;;;20.60;1.35;;;;;;;-146.25;92.13;52147.19;2079771;28;33541;-72
2023/05/16 02:42:54;;;;;;;11.55;1.38;;;;;;;-146.25;93.14;52135.03;2079788;28;33042;-71
2023/05/16 02:43:56;;;;;;;13.00;1.38;;;;;;;-146.25;92.95;52094.47;2079396;28;20038;-72
2023/05/16 02:44:58;;;;;;;16.17;1.50;;;;;;;-146.25;92.98;52116.78;2071530;28;20900;-72
2023/05/16 02:46:03;;;;;;;16.60;1.30;;;;;;;-146.25;92.85;52153.28;2071212;28;25005;-71
2023/05/16 02:47:05;;;;;;;13.40;1.10;;;;;;;-146.25;92.84;52141.13;2079360;28;27511;-72
2023/05/16 02:48:07;;;;;;;14.35;1.13;;;;;;;-146.25;93.69;52155.31;2087489;28;30659;-72
2023/05/16 02:49:12;;;;;;;14.77;1.20;;;;;;;-146.25;93.34;52157.34;2079445;28;20041;-72
2023/05/16 02:50:13;;;;;;;15.75;1.00;;;;;;;-146.25;93.82;52137.06;2078794;28;31966;-71
2023/05/16 02:51:17;;;;;;;15.02;1.17;;;;;;;-146.25;93.21;52108.66;2079050;28;20180;-71
2023/05/16 02:52:20;;;;;;;17.65;1.00;;;;;;;-146.25;93.66;52128.94;2079644;28;20132;-72
2023/05/16 02:53:25;;;;;;;18.30;1.05;;;;;;;-146.25;93.64;52120.84;2079072;28;30057;-72
2023/05/16 02:54:26;;;;;;;18.40;1.13;;;;;;;-146.25;93.41;52135.03;2063664;28;20160;-72
2023/05/16 02:55:28;;;;;;;13.60;1.50;;;;;;;-146.25;92.97;52135.03;2072109;28;20051;-71
2023/05/16 02:56:33;;;;;;;12.52;1.17;;;;;;;-146.25;93.61;52120.84;2080337;28;20030;-72
2023/05/16 02:57:35;;;;;;;21.98;1.42;;;;;;;-146.25;92.90;52171.53;2079642;28;29083;-71
2023/05/16 02:58:36;;;;;;;19.27;1.55;;;;;;;-146.25;93.18;52157.34;2079898;28;20833;-71
2023/05/16 02:59:42;;;;;;;13.45;1.15;;;;;;;-146.25;93.18;52167.47;2079408;28;20196;-71
2023/05/16 03:00:43;;;;;;;14.70;1.00;;;;;;;-146.25;93.85;52088.41;2066754;28;28825;-71
2023/05/16 03:01:45;;;;;;;17.33;1.10;;;;;;;-146.25;93.60;52104.63;2078684;28;36485;-71
2023/05/16 03:02:47;;;;;;;16.13;1.55;;;;;;;-146.25;94.15;52153.28;2070160;28;20155;-71
2023/05/16 03:03:49;;;;;;;17.33;1.00;;;;;;;-146.25;94.27;52130.97;2071098;28;25012;-72
2023/05/16 03:04:51;;;;;;;17.17;1.55;;;;;;;-146.25;93.60;52173.56;2079009;28;25459;-71
2023/05/16 03:05:53;;;;;;;17.58;1.38;;;;;;;-146.25;93.93;52102.59;2070891;28;30633;-71
2023/05/16 03:06:55;;;;;;;14.93;1.35;;;;;;;-146.25;93.79;52133.00;2079149;28;30598;-72
2023/05/16 03:07:56;;;;;;;12.82;0.88;;;;;;;-146.25;94.10;52171.53;2078807;28;38053;-71
2023/05/16 03:08:58;;;;;;;11.35;1.08;;;;;;;-146.25;94.51;52153.28;2070599;28;26895;-72
2023/05/16 03:10:03;;;;;;;13.02;1.35;;;;;;;-146.25;94.70;52175.56;2070965;28;34464;-71
2023/05/16 03:11:05;;;;;;;11.57;1.42;;;;;;;-146.25;94.23;52139.09;2071986;28;24564;-71
2023/05/16 03:12:06;;;;;;;15.00;1.00;;;;;;;-146.25;94.26;52141.13;2072301;28;27048;-72
2023/05/16 03:13:09;;;;;;;13.52;0.82;;;;;;;-146.25;94.46;52141.13;2064915;28;20138;-71
2023/05/16 03:14:11;;;;;;;12.30;0.80;;;;;;;-146.25;94.89;52161.38;2056661;28;23018;-71
2023/05/16 03:15:13;;;;;;;18.25;1.30;;;;;;;-146.25;94.97;52141.13;2072366;28;29817;-72
2023/05/16 03:16:15;;;;;;;14.57;1.58;;;;;;;-146.25;94.66;52112.72;2080240;28;29572;-72
2023/05/16 03:17:17;;;;;;;12.27;1.10;;;;;;;-146.25;94.55;52141.13;2072066;28;30534;-72
2023/05/16 03:18:19;;;;;;;15.55;1.02;;;;;;;-146.25;95.41;52128.94;2081300;28;20839;-72
2023/05/16 03:19:20;;;;;;;13.40;0.90;;;;;;;-146.25;95.82;52120.84;2081240;28;23100;-72
2023/05/16 03:20:22;;;;;;;12.43;1.42;;;;;;;-146.25;96.01;52169.50;2081040;28;28095;-72
2023/05/16 03:21:24;;;;;;;15.25;0.90;;;;;;;-146.25;95.29;52167.47;2081352;28;23011;-72
2023/05/16 03:22:26;;;;;;;16.98;1.25;;;;;;;-146.25;94.94;52096.50;2072340;28;28372;-72
2023/05/16 03:23:28;;;;;;;17.38;1.20;;;;;;;-146.25;95.33;52173.56;2072432;28;20042;-72
2023/05/16 03:24:30;;;;;;;18.17;1.77;;;;;;;-146.25;95.35;52122.88;2081389;28;20161;-72
2023/05/16 03:25:31;;;;;;;13.10;0.95;;;;;;;-146.25;95.54;52149.22;2081040;28;27855;-71
2023/05/16 03:26:33;;;;;;;12.90;0.93;;;;;;;-146.25;95.42;52181.66;2080927;28;33636;-72
2023/05/16 03:27:35;;;;;;;15.10;1.15;;;;;;;-146.25;95.77;52149.22;2081122;28;25785;-72
2023/05/16 03:28:37;;;;;;;14.43;1.13;;;;;;;-146.25;95.21;52171.53;2081745;28;20290;-71
2023/05/16 03:29:38;;;;;;;15.85;1.13;;;;;;;-146.25;95.58;52161.38;2082078;28;20038;-72
2023/05/16 03:30:41;;;;;;;13.02;1.23;;;;;;;-146.25;95.27;52151.25;2080568;28;33435;-72
2023/05/16 03:31:43;;;;;;;10.25;0.77;;;;;;;-146.25;95.74;52108.66;2080146;28;31461;-71
2023/05/16 03:32:45;;;;;;;13.38;1.00;;;;;;;-146.25;96.04;52135.03;2080518;28;30947;-71
2023/05/16 03:33:47;;;;;;;16.05;1.50;;;;;;;-146.25;96.37;52141.13;2072178;28;27793;-72
2023/05/16 03:34:48;;;;;;;14.10;1.15;;;;;;;-146.25;96.47;52122.88;2072657;28;27568;-71
2023/05/16 03:35:51;;;;;;;15.48;1.50;;;;;;;-146.25;96.33;52122.88;2080791;28;37195;-71
2023/05/16 03:36:53;;;;;;;10.07;0.90;;;;;;;-146.25;96.89;52157.34;2081074;28;20080;-71
2023/05/16 03:37:57;;;;;;;11.02;1.00;;;;;;;-146.25;97.28;52161.38;2080253;28;20030;-71
2023/05/16 03:38:59;;;;;;;15.68;1.23;;;;;;;-146.25;97.15;52149.22;2081732;28;20800;-71
2023/05/16 03:40:04;;;;;;;17.83;1.30;;;;;;;-146.25;97.38;52145.16;2080951;28;20077;-71
2023/05/16 03:41:06;;;;;;;16.27;1.17;;;;;;;-146.25;97.54;52157.34;2080444;28;27174;-72
2023/05/16 03:42:07;;;;;;;13.82;1.35;;;;;;;-146.25;97.48;52187.75;2072075;28;20046;-71
2023/05/16 03:43:09;;;;;;;15.73;1.20;;;;;;;-146.25;97.45;52165.44;2080193;28;38530;-72
2023/05/16 03:44:11;;;;;;;14.30;1.17;;;;;;;-146.25;97.47;52183.69;2081104;28;29314;-71
2023/05/16 03:45:13;;;;;;;17.77;1.52;;;;;;;-146.25;97.48;52161.38;2081059;28;36098;-72
2023/05/16 03:46:14;;;;;;;15.45;1.13;;;;;;;-146.25;97.32;52145.16;2080187;28;36941;-71
2023/05/16 03:47:16;;;;;;;14.73;1.17;;;;;;;-146.25;97.68;52149.22;2081497;28;20049;-72
2023/05/16 03:48:21;;;;;;;11.80;1.00;;;;;;;-146.25;96.97;52159.34;2080447;28;20776;-71
2023/05/16 03:49:28;;;;;;;11.75;0.93;;;;;;;-146.25;98.03;52133.00;2079681;28;32089;-72
2023/05/16 03:50:30;;;;;;;16.52;2.17;;;;;;;-146.25;98.26;52147.19;2080290;28;32904;-72
2023/05/16 03:51:32;;;;;;;12.98;1.08;;;;;;;-146.25;98.32;52137.06;2080106;28;37802;-72
2023/05/16 03:52:34;;;;;;;9.27;1.10;;;;;;;-146.25;98.23;52165.44;2081476;28;20046;-72
2023/05/16 03:53:36;;;;;;;18.45;1.40;;;;;;;-146.25;97.81;52143.13;2081577;28;20034;-72
2023/05/16 03:54:40;;;;;;;15.40;1.23;;;;;;;-146.25;97.64;52193.81;2080410;28;20046;-72
2023/05/16 03:55:42;;;;;;;14.05;1.50;;;;;;;-146.25;97.78;52145.16;2080511;28;30316;-72
2023/05/16 03:56:46;;;;;;;16.63;1.48;;;;;;;-146.25;97.50;52189.78;2080800;28;20042;-71
2023/05/16 03:57:49;;;;;;;10.85;1.00;;;;;;;-146.25;97.55;52173.56;2080343;28;35336;-72
2023/05/16 03:58:50;;;;;;;17.77;1.50;;;;;;;-146.25;97.28;52141.13;2080528;28;31963;-72
2023/05/16 03:59:52;;;;;;;15.77;1.00;;;;;;;-146.25;97.37;52173.56;2080609;28;34278;-72
2023/05/16 04:00:56;;;;;;;13.63;1.02;;;;;;;-146.25;97.32;52173.56;2080161;28;31019;-72
2023/05/16 04:01:58;;;;;;;15.95;0.98;;;;;;;-146.25;97.00;52153.28;2080179;28;33303;-72
2023/05/16 04:02:59;;;;;;;14.52;1.25;;;;;;;-146.25;96.71;52133.00;2080397;28;40019;-72
2023/05/16 04:04:01;;;;;;;9.93;1.05;;;;;;;-146.25;96.61;52185.72;2080627;28;35203;-72
2023/05/16 04:05:03;;;;;;;8.48;0.80;;;;;;;-146.25;96.10;52157.34;2080308;28;36075;-72
2023/05/16 04:06:07;;;;;;;14.07;1.25;;;;;;;-146.25;95.09;52116.78;2080838;28;34743;-72
2023/05/16 04:07:08;;;;;;;14.73;1.58;;;;;;;-146.25;94.87;52189.78;2079523;28;34453;-71
2023/05/16 04:08:10;;;;;;;14.00;1.10;;;;;;;-146.25;93.49;52169.50;2080360;28;36437;-71
2023/05/16 04:09:12;;;;;;;13.85;1.58;;;;;;;-146.25;92.72;52139.09;2080739;28;34485;-71
2023/05/16 04:10:15;;;;;;;10.88;1.20;;;;;;;-146.25;91.49;52189.78;2080578;28;34154;-72
2023/05/16 04:11:19;;;;;;;11.50;1.20;;;;;;;-146.25;89.93;52165.44;2080589;28;36364;-71
2023/05/16 04:12:21;;;;;;;13.52;1.40;;;;;;;-146.25;89.69;52185.72;2080839;28;33356;-72
2023/05/16 04:13:30;;;;;;;15.23;1.02;;;;;;;-146.25;88.56;52161.38;2080122;28;33779;-72
2023/05/16 04:14:34;;;;;;;8.05;0.95;;;;;;;-146.25;86.39;52151.25;2080176;28;35192;-71
2023/05/16 04:15:36;;;;;;;11.77;1.13;;;;;;;-146.25;85.74;52145.16;2079530;28;34604;-72
2023/05/16 04:16:40;;;;;;;12.80;1.67;;;;;;;-146.25;84.66;52155.31;2080025;28;35553;-71
2023/05/16 04:17:41;;;;;;;12.63;1.55;;;;;;;-146.25;84.78;52177.59;2081149;28;20300;-71
2023/05/16 04:18:43;;;;;;;10.40;0.95;;;;;;;-146.25;83.16;52173.56;2080214;28;36065;-72
2023/05/16 04:19:45;;;;;;;12.43;1.17;;;;;;;-146.25;80.82;52185.72;2080596;28;34116;-72
2023/05/16 04:20:49;;;;;;;12.20;1.17;;;;;;;-146.25;79.07;52191.81;2081168;28;20038;-71
2023/05/16 04:21:51;;;;;;;11.40;0.90;;;;;;;-146.25;79.51;52177.59;2079980;28;36933;-72
2023/05/16 04:22:56;;;;;;;14.07;1.65;;;;;;;-146.25;77.46;52161.38;2081368;28;20053;-72
2023/05/16 04:23:58;;;;;;;10.00;1.10;;;;;;;-146.25;77.75;52201.94;2080206;28;31499;-71
2023/05/16 04:25:00;;;;;;;9.48;0.68;;;;;;;-146.25;75.96;52143.13;2080740;28;34865;-72
2023/05/16 04:26:03;;;;;;;11.82;0.77;;;;;;;-146.25;74.65;52169.50;2080650;28;34312;-72
2023/05/16 04:27:08;;;;;;;11.10;1.23;;;;;;;-146.25;74.96;52193.81;2081150;28;20038;-71
2023/05/16 04:28:10;;;;;;;9.82;0.90;;;;;;;-146.25;74.47;52157.34;2080377;28;37097;-72
2023/05/16 04:29:13;;;;;;;15.02;1.23;;;;;;;-146.25;74.62;52157.34;2079724;28;36453;-72
2023/05/16 04:30:15;;;;;;;7.93;0.63;;;;;;;-146.25;74.46;52157.34;2079977;28;36462;-72
2023/05/16 04:31:17;;;;;;;9.48;0.70;;;;;;;-146.25;74.72;52177.59;2080132;28;37002;-71
2023/05/16 04:32:18;;;;;;;8.07;0.93;;;;;;;-146.25;75.34;52149.22;2080325;28;33509;-72
2023/05/16 04:33:20;;;;;;;8.07;1.23;;;;;;;-146.25;74.35;52181.66;2080382;28;37016;-72
2023/05/16 04:34:26;;;;;;;14.68;1.15;;;;;;;-146.25;75.08;52163.41;2080941;28;20045;-72
2023/05/16 04:35:28;;;;;;;10.57;1.02;;;;;;;-146.25;74.84;52169.50;2080455;28;28824;-69
2023/05/16 04:36:34;;;;;;;10.15;1.15;;;;;;;-146.25;71.25;52171.53;2081120;28;30374;-71
2023/05/16 04:37:36;;;;;;;10.18;0.70;;;;;;;-146.25;70.13;52161.38;2080527;28;33990;-71
2023/05/16 04:38:38;;;;;;;9.88;0.98;;;;;;;-146.25;69.82;52203.97;2079943;28;35329;-72
2023/05/16 04:39:41;;;;;;;19.17;1.52;;;;;;;-146.25;69.37;52153.28;2080387;28;37888;-71
2023/05/16 04:40:43;;;;;;;12.02;0.85;;;;;;;-146.25;68.34;52185.72;2079837;28;20804;-72
2023/05/16 04:41:46;;;;;;;11.07;0.93;;;;;;;-146.25;68.56;52203.97;2071971;28;20046;-71
2023/05/16 04:42:47;;;;;;;11.45;1.20;;;;;;;-146.25;65.42;52195.84;2080182;28;20045;-70
2023/05/16 04:43:52;;;;;;;8.15;1.10;;;;;;;-146.25;68.34;52130.97;2080338;28;34122;-71
2023/05/16 04:44:55;;;;;;;10.57;1.10;;;;;;;-146.25;67.50;52155.31;2081300;28;20922;-70
2023/05/16 04:45:57;;;;;;;9.07;1.15;;;;;;;-146.25;67.47;52167.47;2080027;28;32299;-71
2023/05/16 04:47:02;;;;;;;11.23;1.23;;;;;;;-146.25;64.43;52165.44;2081028;28;20034;-71
2023/05/16 04:48:03;;;;;;;10.77;0.85;;;;;;;-146.25;63.51;52177.59;2079817;28;37035;-71
2023/05/16 04:49:05;;;;;;;12.93;1.15;;;;;;;-146.25;63.23;52226.25;2080075;28;33025;-70
2023/05/16 04:50:08;;;;;;;10.25;1.33;;;;;;;-146.25;62.23;52171.53;2080148;28;37002;-72
2023/05/16 04:51:10;;;;;;;8.00;0.90;;;;;;;-146.25;59.70;52173.56;2080524;28;31208;-72
2023/05/16 04:52:12;;;;;;;9.93;1.00;;;;;;;-146.25;60.38;52169.50;2080283;28;36109;-71
2023/05/16 04:53:13;;;;;;;9.27;1.00;;;;;;;-146.25;58.90;52128.94;2079864;28;34076;-71
2023/05/16 04:54:17;;;;;;;10.25;0.85;;;;;;;-146.25;59.59;52185.72;2080464;28;32197;-72